METAR Data

Data at: 1138 UTC 21 Apr 2021

METAR for:KAUG (Augusta/State Arpt, ME, US)
Text:KAUG 211053Z AUTO 03006KT 10SM OVC055 06/04 A2985 RMK AO2 SLP109 T00610044
Temperature: 6.1°C ( 43°F)
Dewpoint: 4.4°C ( 40°F) [RH = 89%]
Pressure (altimeter):29.85 inches Hg (1010.9 mb) [Sea level pressure: 1010.9 mb]
Winds:from the NNE (30 degrees) at 7 MPH (6 knots; 3.1 m/s)
Visibility:10 or more sm (16+ km)
Ceiling:5500 feet AGL
Clouds: overcast cloud deck at 5500 feet AGL
QC Flag:automated observation with no human augmentation